Terminal Aerodrome Forecast
Issued by NWS

Home | Current Version | Previous Version | Text Only | Print | Product List | Glossary On
Versions: 1 2 3 4 5 6 7 8 9 10 11 12 13 14 15
718
FTUS45 KTFX 261729
TAFHLN
TAF
KHLN 261729Z 2618/2718 VRB06KT P6SM VCSH BKN050
      TEMPO 2619/2623 -SHRA SCT030 OVC050
     FM270000 VRB06KT P6SM SCT050 BKN070
     FM271400 VRB06KT P6SM -SHRA SCT020 BKN040=

USA.gov is the U.S. government's official web portal to all federal, state and local government web resources and services.